createdAt,value
2019-01-14T00:01:41.265Z,8.70
2019-01-14T00:04:12.210Z,8.70
2019-01-14T00:06:45.308Z,8.70
2019-01-14T00:09:23.072Z,8.70
2019-01-14T00:11:51.220Z,8.70
2019-01-14T00:14:25.497Z,8.70
2019-01-14T00:16:55.924Z,8.70
2019-01-14T00:19:28.570Z,8.60
2019-01-14T00:22:01.144Z,8.60
2019-01-14T00:24:36.765Z,8.70
2019-01-14T00:27:10.225Z,8.60
2019-01-14T00:29:43.398Z,8.60
2019-01-14T00:32:13.543Z,8.60
2019-01-14T00:34:47.584Z,8.60
2019-01-14T00:37:19.853Z,8.50
2019-01-14T00:39:51.996Z,8.50
2019-01-14T00:42:24.552Z,8.60
2019-01-14T00:44:55.869Z,8.60
2019-01-14T00:47:26.704Z,8.60
2019-01-14T00:49:57.682Z,8.60
2019-01-14T00:52:27.822Z,8.60
2019-01-14T00:55:17.819Z,8.60
2019-01-14T00:57:49.219Z,8.60
2019-01-14T01:00:22.370Z,8.60
2019-01-14T01:02:54.807Z,8.60
2019-01-14T01:05:29.216Z,8.60
2019-01-14T01:08:03.508Z,8.60
2019-01-14T01:10:37.269Z,8.60
2019-01-14T01:13:12.615Z,8.50
2019-01-14T01:15:43.616Z,8.50
2019-01-14T01:18:15.654Z,8.40
2019-01-14T01:20:49.022Z,8.40
2019-01-14T01:23:22.030Z,8.50
2019-01-14T01:25:52.456Z,8.50
2019-01-14T01:28:26.573Z,8.40
2019-01-14T01:30:59.869Z,8.40
2019-01-14T01:33:33.820Z,8.50
2019-01-14T01:36:04.147Z,8.50
2019-01-14T01:38:34.080Z,8.50
2019-01-14T01:41:04.008Z,8.50
2019-01-14T01:43:36.102Z,8.50
2019-01-14T01:46:07.366Z,8.50
2019-01-14T01:48:39.704Z,8.50
2019-01-14T01:51:11.158Z,8.50
2019-01-14T01:53:47.073Z,8.50
2019-01-14T01:56:18.401Z,8.50
2019-01-14T01:58:53.766Z,8.50
2019-01-14T02:01:27.898Z,8.50
2019-01-14T02:04:09.018Z,8.40
2019-01-14T02:06:39.450Z,8.30
2019-01-14T02:09:11.348Z,8.30
2019-01-14T02:11:41.502Z,8.40
2019-01-14T02:14:26.338Z,8.40
2019-01-14T02:20:21.910Z,8.50
2019-01-14T02:22:56.187Z,8.50
2019-01-14T02:25:26.518Z,8.50
2019-01-14T02:27:56.972Z,8.60
2019-01-14T02:30:28.555Z,8.60
2019-01-14T02:33:00.926Z,8.60
2019-01-14T02:35:30.974Z,8.60
2019-01-14T02:38:06.799Z,8.60
2019-01-14T02:40:45.469Z,8.70
2019-01-14T02:43:18.552Z,8.70
2019-01-14T02:45:49.571Z,8.70
2019-01-14T02:48:26.909Z,8.70
2019-01-14T02:50:56.936Z,8.70
2019-01-14T02:53:31.362Z,8.60
2019-01-14T02:56:03.684Z,8.60
2019-01-14T02:58:38.010Z,8.70
2019-01-14T03:01:12.856Z,8.60
2019-01-14T03:03:44.367Z,8.60
2019-01-14T03:06:16.957Z,8.50
2019-01-14T03:08:49.117Z,8.50
2019-01-14T03:11:21.292Z,8.50
2019-01-14T03:13:52.152Z,8.40
2019-01-14T03:16:24.682Z,8.40
2019-01-14T03:18:58.177Z,8.20
2019-01-14T03:21:30.269Z,8.20
2019-01-14T03:24:01.720Z,8.20
2019-01-14T03:26:37.855Z,8.20
2019-01-14T03:29:10.586Z,8.20
2019-01-14T03:31:41.010Z,8.00
2019-01-14T03:34:12.837Z,8.00
2019-01-14T03:36:43.257Z,8.00
2019-01-14T03:39:13.850Z,8.00
2019-01-14T03:41:43.994Z,8.10
2019-01-14T03:44:14.441Z,8.00
2019-01-14T03:46:44.930Z,7.90
2019-01-14T03:49:17.436Z,7.90
2019-01-14T03:51:48.249Z,7.90
2019-01-14T03:54:20.348Z,7.90
2019-01-14T03:56:54.115Z,7.90
2019-01-14T03:59:25.231Z,7.90
2019-01-14T04:01:55.556Z,7.90
2019-01-14T04:04:25.639Z,7.90
2019-01-14T04:06:56.156Z,8.00
2019-01-14T04:09:29.060Z,8.00
2019-01-14T04:12:00.716Z,8.00
2019-01-14T04:14:33.924Z,8.10
2019-01-14T04:17:06.911Z,8.20
2019-01-14T04:19:38.130Z,8.30
2019-01-14T04:22:08.124Z,8.30
2019-01-14T04:24:40.266Z,8.30
2019-01-14T04:27:10.417Z,8.30
2019-01-14T04:29:43.575Z,8.30
2019-01-14T04:32:17.426Z,8.30
2019-01-14T04:34:53.959Z,8.30
2019-01-14T04:37:24.247Z,7.90
2019-01-14T04:39:57.995Z,8.30
2019-01-14T04:42:30.141Z,8.30
2019-01-14T04:45:01.090Z,8.30
2019-01-14T04:47:31.327Z,8.40
2019-01-14T04:50:01.740Z,8.40
2019-01-14T04:52:31.831Z,8.40
2019-01-14T04:55:02.897Z,8.30
2019-01-14T04:57:32.981Z,8.30
2019-01-14T05:00:04.864Z,8.30
2019-01-14T05:02:34.752Z,8.30
2019-01-14T05:05:05.830Z,8.30
2019-01-14T05:07:35.881Z,8.20
2019-01-14T05:10:06.868Z,8.10
2019-01-14T05:12:38.407Z,8.10
2019-01-14T05:15:13.140Z,8.00
2019-01-14T05:17:45.096Z,8.10
2019-01-14T05:20:17.921Z,8.00
2019-01-14T05:22:47.915Z,7.90
2019-01-14T05:25:20.108Z,7.90
2019-01-14T05:27:51.285Z,7.80
2019-01-14T05:30:21.639Z,7.80
2019-01-14T05:32:52.063Z,7.80
2019-01-14T05:35:23.044Z,7.80
2019-01-14T05:37:53.733Z,7.80
2019-01-14T05:40:25.329Z,7.80
2019-01-14T05:42:59.297Z,7.70
2019-01-14T05:45:30.246Z,7.70
2019-01-14T05:48:00.437Z,7.60
2019-01-14T05:50:32.949Z,7.60
2019-01-14T05:53:05.756Z,7.60
2019-01-14T05:55:38.049Z,7.70
2019-01-14T05:58:08.713Z,7.60
2019-01-14T06:00:49.619Z,7.50
2019-01-14T06:03:19.738Z,7.50
2019-01-14T06:05:49.599Z,7.50
2019-01-14T06:08:20.401Z,7.50
2019-01-14T06:10:50.829Z,7.50
2019-01-14T06:13:20.809Z,7.60
2019-01-14T06:15:51.227Z,7.70
2019-01-14T06:18:22.238Z,7.80
2019-01-14T06:20:52.351Z,7.80
2019-01-14T06:23:23.563Z,7.80
2019-01-14T06:25:53.939Z,7.80
2019-01-14T06:28:24.297Z,7.90
2019-01-14T06:30:56.689Z,7.80
2019-01-14T06:33:26.781Z,7.80
2019-01-14T06:35:56.888Z,7.90
2019-01-14T06:38:30.364Z,7.80
2019-01-14T06:41:02.588Z,7.80
2019-01-14T06:43:32.760Z,7.80
2019-01-14T06:46:06.641Z,7.80
2019-01-14T06:48:38.231Z,7.70
2019-01-14T06:51:08.495Z,7.80
2019-01-14T06:53:38.582Z,7.70
2019-01-14T06:56:11.537Z,7.80
2019-01-14T06:58:42.579Z,7.80
2019-01-14T07:01:15.025Z,7.80
2019-01-14T07:03:46.355Z,7.80
2019-01-14T07:06:19.628Z,7.70
2019-01-14T07:08:49.701Z,7.60
2019-01-14T07:11:21.081Z,7.50
2019-01-14T07:13:52.038Z,7.40
2019-01-14T07:16:22.331Z,7.40
2019-01-14T07:18:52.393Z,7.40
2019-01-14T07:21:24.176Z,7.30
2019-01-14T07:23:54.332Z,7.30
2019-01-14T07:26:26.353Z,7.20
2019-01-14T07:29:02.141Z,7.10
2019-01-14T07:31:32.337Z,7.10
2019-01-14T07:34:03.548Z,7.10
2019-01-14T07:36:33.611Z,7.10
2019-01-14T07:39:05.108Z,7.10
2019-01-14T07:41:35.612Z,7.20
2019-01-14T07:44:07.291Z,7.20
2019-01-14T07:46:37.626Z,7.40
2019-01-14T07:49:07.912Z,7.40
2019-01-14T07:51:38.058Z,7.40
2019-01-14T07:54:08.313Z,7.50
2019-01-14T07:56:38.536Z,7.40
2019-01-14T07:59:08.571Z,7.30
2019-01-14T08:01:38.498Z,7.30
2019-01-14T08:04:08.467Z,7.40
2019-01-14T08:06:40.965Z,7.40
2019-01-14T08:09:11.447Z,7.30
2019-01-14T08:11:41.553Z,7.20
2019-01-14T08:14:11.682Z,7.20
2019-01-14T08:16:43.370Z,7.30
2019-01-14T08:19:17.892Z,7.30
2019-01-14T08:21:48.533Z,7.30
2019-01-14T08:24:19.977Z,7.30
2019-01-14T08:26:51.478Z,7.30
2019-01-14T08:29:22.612Z,7.30
2019-01-14T08:31:52.657Z,7.30
2019-01-14T08:34:24.208Z,7.30
2019-01-14T08:37:00.573Z,7.40
2019-01-14T08:39:25.580Z,7.50
2019-01-14T08:42:01.360Z,7.60
2019-01-14T08:44:48.009Z,7.60
2019-01-14T08:47:18.776Z,7.70
2019-01-14T08:49:49.711Z,7.80
2019-01-14T08:52:19.625Z,7.70
2019-01-14T08:54:50.227Z,7.80
2019-01-14T08:57:21.559Z,7.70
2019-01-14T08:59:53.252Z,7.70
2019-01-14T09:02:23.684Z,7.80
2019-01-14T09:04:55.947Z,7.80
2019-01-14T09:07:26.328Z,7.80
2019-01-14T09:09:56.602Z,7.80
2019-01-14T09:12:26.614Z,7.90
2019-01-14T09:14:56.817Z,7.90
2019-01-14T09:17:29.899Z,7.90
2019-01-14T09:20:03.087Z,7.90
2019-01-14T09:22:33.968Z,7.90
2019-01-14T09:25:04.292Z,7.90
2019-01-14T09:27:34.235Z,8.00
2019-01-14T09:30:10.837Z,8.00
2019-01-14T09:32:50.381Z,8.00
2019-01-14T09:35:20.737Z,8.00
2019-01-14T09:37:50.776Z,8.00
2019-01-14T09:40:25.606Z,7.90
2019-01-14T09:42:55.634Z,8.00
2019-01-14T09:45:25.888Z,8.10
2019-01-14T09:47:55.916Z,8.10
2019-01-14T09:50:27.017Z,8.20
2019-01-14T09:52:57.594Z,8.20
2019-01-14T09:55:28.963Z,8.20
2019-01-14T09:57:59.373Z,8.20
2019-01-14T10:00:29.286Z,8.40
2019-01-14T10:02:59.888Z,8.60
2019-01-14T10:05:32.141Z,8.60
2019-01-14T10:08:03.489Z,8.60
2019-01-14T10:10:37.441Z,8.70
2019-01-14T10:13:09.498Z,8.60
2019-01-14T10:15:39.640Z,8.40
2019-01-14T10:18:09.834Z,8.40
2019-01-14T10:20:39.644Z,8.30
2019-01-14T10:23:10.387Z,8.30
2019-01-14T10:25:40.270Z,8.40
2019-01-14T10:28:11.289Z,8.30
2019-01-14T10:30:45.490Z,8.30
2019-01-14T10:33:15.666Z,8.30
2019-01-14T10:35:46.035Z,8.30
2019-01-14T10:38:16.084Z,8.30
2019-01-14T10:40:47.202Z,8.30
2019-01-14T10:43:23.718Z,8.30
2019-01-14T10:45:55.707Z,8.30
2019-01-14T10:48:26.060Z,8.40
2019-01-14T10:50:56.048Z,8.50
2019-01-14T10:53:28.371Z,8.50
2019-01-14T10:55:59.487Z,8.60
2019-01-14T10:58:29.682Z,8.60
2019-01-14T11:01:01.368Z,8.70
2019-01-14T11:03:32.244Z,8.70
2019-01-14T11:06:03.833Z,8.70
2019-01-14T11:08:34.636Z,8.70
2019-01-14T11:11:04.931Z,8.70
2019-01-14T11:13:35.488Z,8.70
2019-01-14T11:16:05.979Z,8.70
2019-01-14T11:18:36.263Z,8.70
2019-01-14T11:21:08.214Z,8.70
2019-01-14T11:23:38.812Z,8.70
2019-01-14T11:26:12.616Z,8.70
2019-01-14T11:28:42.787Z,8.90
2019-01-14T11:31:14.588Z,8.90
2019-01-14T11:33:45.812Z,9.00
2019-01-14T11:36:15.490Z,9.10
2019-01-14T11:38:53.140Z,9.10
2019-01-14T11:41:24.254Z,9.10
2019-01-14T11:43:55.809Z,9.20
2019-01-14T11:46:26.855Z,9.10
2019-01-14T11:48:56.584Z,9.00
2019-01-14T11:51:27.403Z,9.00
2019-01-14T11:53:58.065Z,9.00
2019-01-14T11:56:27.763Z,9.00
2019-01-14T11:58:57.421Z,9.00
2019-01-14T12:01:27.737Z,9.00
2019-01-14T12:03:57.890Z,9.00
2019-01-14T12:06:28.207Z,9.00
2019-01-14T12:09:01.239Z,9.00
2019-01-14T12:11:31.280Z,9.10
2019-01-14T12:14:01.618Z,9.00
2019-01-14T12:16:31.490Z,9.00
2019-01-14T12:19:01.202Z,8.90
2019-01-14T12:21:30.939Z,9.00
2019-01-14T12:24:02.750Z,9.00
2019-01-14T12:26:32.844Z,9.10
2019-01-14T12:29:02.940Z,9.00
2019-01-14T12:31:32.721Z,9.00
2019-01-14T12:34:05.296Z,9.00
2019-01-14T12:36:35.669Z,9.10
2019-01-14T12:39:09.121Z,9.00
2019-01-14T12:41:39.732Z,9.00
2019-01-14T12:44:10.047Z,9.10
2019-01-14T12:46:42.134Z,9.10
2019-01-14T12:49:16.379Z,9.10
2019-01-14T12:51:46.082Z,9.10
2019-01-14T12:54:15.784Z,9.10
2019-01-14T12:56:49.150Z,9.10
2019-01-14T12:59:18.875Z,9.10
2019-01-14T13:01:48.948Z,9.10
2019-01-14T13:04:19.795Z,9.10
2019-01-14T13:06:49.500Z,9.10
2019-01-14T13:09:26.580Z,9.20
2019-01-14T13:11:51.212Z,9.20
2019-01-14T13:14:30.410Z,9.20
2019-01-14T13:17:01.167Z,9.30
2019-01-14T13:19:30.816Z,9.30
2019-01-14T13:22:01.694Z,9.30
2019-01-14T13:24:31.913Z,9.30
2019-01-14T13:27:02.235Z,9.30
2019-01-14T13:29:32.834Z,9.20
2019-01-14T13:32:03.077Z,9.30
2019-01-14T13:34:34.605Z,9.30
2019-01-14T13:37:05.259Z,9.20
2019-01-14T13:39:35.124Z,9.30
2019-01-14T13:42:04.935Z,9.30
2019-01-14T13:44:37.207Z,9.30
2019-01-14T13:47:08.639Z,9.30
2019-01-14T13:49:38.693Z,9.20
2019-01-14T13:52:08.713Z,9.20
2019-01-14T13:54:39.709Z,9.20
2019-01-14T13:57:09.842Z,9.20
2019-01-14T13:59:40.769Z,9.20
2019-01-14T14:02:12.087Z,9.20
2019-01-14T14:04:46.013Z,9.20
2019-01-14T14:07:16.244Z,9.20
2019-01-14T14:09:48.197Z,9.10
2019-01-14T14:12:17.993Z,9.10
2019-01-14T14:14:47.680Z,9.20
2019-01-14T14:17:18.128Z,9.20
2019-01-14T14:19:47.810Z,9.20
2019-01-14T14:22:18.091Z,9.20
2019-01-14T14:24:47.891Z,9.30
2019-01-14T14:27:19.124Z,9.30
2019-01-14T14:29:53.315Z,9.30
2019-01-14T14:32:23.137Z,9.40
2019-01-14T14:34:53.482Z,9.40
2019-01-14T14:37:24.942Z,9.30
2019-01-14T14:39:55.716Z,9.30
2019-01-14T14:42:37.665Z,9.20
2019-01-14T14:45:09.389Z,9.20
2019-01-14T14:47:39.480Z,9.30
2019-01-14T14:50:11.375Z,9.30
2019-01-14T14:52:41.186Z,9.30
2019-01-14T14:55:11.793Z,9.30
2019-01-14T14:57:43.045Z,9.40
2019-01-14T15:00:15.543Z,9.30
2019-01-14T15:02:45.620Z,9.20
2019-01-14T15:05:16.047Z,9.20
2019-01-14T15:07:46.126Z,9.10
2019-01-14T15:10:17.982Z,9.10
2019-01-14T15:12:54.756Z,9.00
2019-01-14T15:15:25.664Z,9.10
2019-01-14T15:18:06.317Z,9.00
2019-01-14T15:20:38.071Z,9.00
2019-01-14T15:23:07.748Z,8.90
2019-01-14T15:25:52.100Z,8.90
2019-01-14T15:28:28.053Z,8.80
2019-01-14T15:30:59.968Z,8.80
2019-01-14T15:36:26.889Z,8.70
2019-01-14T15:38:56.849Z,8.60
2019-01-14T15:41:26.981Z,8.60
2019-01-14T15:43:57.174Z,8.60
2019-01-14T15:46:27.060Z,8.60
2019-01-14T15:48:57.028Z,8.60
2019-01-14T15:51:29.923Z,8.60
2019-01-14T15:54:00.014Z,8.50
2019-01-14T15:56:31.922Z,8.60
2019-01-14T15:59:01.844Z,8.60
2019-01-14T16:01:33.557Z,8.50
2019-01-14T16:04:09.341Z,8.50
2019-01-14T16:06:43.339Z,8.50
2019-01-14T16:09:17.961Z,8.50
2019-01-14T16:11:50.790Z,8.40
2019-01-14T16:14:44.797Z,8.40
2019-01-14T16:17:15.127Z,8.40
2019-01-14T16:19:53.931Z,8.40
2019-01-14T16:23:02.165Z,8.40
2019-01-14T16:26:30.311Z,8.40
2019-01-14T16:29:06.677Z,8.30
2019-01-14T16:31:38.649Z,8.30
2019-01-14T16:34:16.535Z,8.30
2019-01-14T16:37:04.066Z,8.40
2019-01-14T16:39:37.447Z,8.40
2019-01-14T16:42:09.519Z,8.40
2019-01-14T16:44:45.532Z,8.30
2019-01-14T16:47:16.912Z,8.30
2019-01-14T16:49:47.086Z,8.30
2019-01-14T16:52:18.021Z,8.30
2019-01-14T16:54:48.486Z,8.30
2019-01-14T16:57:19.946Z,8.30
2019-01-14T17:00:33.050Z,8.30
2019-01-14T17:03:08.743Z,8.30
2019-01-14T17:05:40.573Z,8.30
2019-01-14T17:08:12.933Z,8.30
2019-01-14T17:10:42.619Z,8.30
2019-01-14T17:13:13.597Z,8.30
2019-01-14T17:15:43.652Z,8.30
2019-01-14T17:18:16.017Z,8.20
2019-01-14T17:20:48.264Z,8.20
2019-01-14T17:23:19.556Z,8.20
2019-01-14T17:26:01.953Z,8.20
2019-01-14T17:32:01.397Z,8.10
2019-01-14T17:34:31.225Z,8.10
2019-01-14T17:37:02.763Z,8.10
2019-01-14T17:39:33.656Z,8.00
2019-01-14T17:42:05.969Z,8.00
2019-01-14T17:44:36.581Z,8.00
2019-01-14T17:47:06.369Z,7.90
2019-01-14T17:49:36.206Z,7.90
2019-01-14T17:52:06.401Z,7.80
2019-01-14T17:54:37.568Z,7.80
2019-01-14T17:57:10.430Z,7.80
2019-01-14T17:59:41.892Z,7.80
2019-01-14T18:02:11.606Z,7.80
2019-01-14T18:04:43.347Z,7.80
2019-01-14T18:07:17.907Z,7.80
2019-01-14T18:09:49.729Z,7.80
2019-01-14T18:12:21.795Z,7.80
2019-01-14T18:15:01.817Z,7.80
2019-01-14T18:17:33.332Z,7.80
2019-01-14T18:20:07.106Z,7.70
2019-01-14T18:22:38.464Z,7.70
2019-01-14T18:25:13.393Z,7.70
2019-01-14T18:28:10.413Z,7.70
2019-01-14T18:30:42.128Z,7.70
2019-01-14T18:33:21.874Z,7.70
2019-01-14T18:35:53.581Z,7.70
2019-01-14T18:38:29.711Z,7.70
2019-01-14T18:41:20.759Z,7.70
2019-01-14T18:43:58.273Z,7.60
2019-01-14T18:46:31.254Z,7.60
2019-01-14T18:49:01.072Z,7.60
2019-01-14T18:51:32.889Z,7.50
2019-01-14T18:54:38.943Z,7.50
2019-01-14T18:57:10.140Z,7.50
2019-01-14T18:59:43.909Z,7.50
2019-01-14T19:02:15.832Z,7.50
2019-01-14T19:04:48.320Z,7.50
2019-01-14T19:07:29.434Z,7.50
2019-01-14T19:09:59.615Z,7.50
2019-01-14T19:12:29.721Z,7.50
2019-01-14T19:15:03.024Z,7.50
2019-01-14T19:17:55.919Z,7.40
2019-01-14T19:24:50.550Z,7.50
2019-01-14T19:27:22.919Z,7.60
2019-01-14T19:29:56.946Z,7.50
2019-01-14T19:32:38.377Z,7.40
2019-01-14T19:35:05.879Z,7.40
2019-01-14T19:37:35.801Z,7.40
2019-01-14T19:40:12.600Z,7.40
2019-01-14T19:42:44.418Z,7.40
2019-01-14T19:45:17.508Z,7.30
2019-01-14T19:47:50.992Z,7.30
2019-01-14T19:50:26.164Z,7.20
2019-01-14T19:52:58.599Z,7.10
2019-01-14T19:55:31.832Z,7.10
2019-01-14T19:58:02.571Z,7.00
2019-01-14T20:00:45.814Z,7.00
2019-01-14T20:03:25.264Z,6.90
2019-01-14T20:05:56.100Z,6.90
2019-01-14T20:08:32.328Z,6.90
2019-01-14T20:11:09.120Z,6.90
2019-01-14T20:13:44.438Z,6.80
2019-01-14T20:16:14.964Z,6.80
2019-01-14T20:18:45.190Z,6.80
2019-01-14T20:21:20.375Z,6.70
2019-01-14T20:23:55.258Z,6.70
2019-01-14T20:26:33.361Z,6.70
2019-01-14T20:29:09.865Z,6.70
2019-01-14T20:31:40.833Z,6.70
2019-01-14T20:34:12.737Z,6.70
2019-01-14T20:36:46.832Z,6.60
2019-01-14T20:39:17.059Z,6.60
2019-01-14T20:41:48.475Z,6.60
2019-01-14T20:44:20.710Z,6.70
2019-01-14T20:46:50.594Z,6.70
2019-01-14T20:49:30.992Z,6.70
2019-01-14T20:52:04.503Z,6.70
2019-01-14T20:54:39.679Z,6.60
2019-01-14T20:57:10.889Z,6.60
2019-01-14T20:59:44.994Z,6.50
2019-01-14T21:02:27.990Z,6.50
2019-01-14T21:05:00.349Z,6.40
2019-01-14T21:07:32.665Z,6.40
2019-01-14T21:10:04.408Z,6.40
2019-01-14T21:12:36.488Z,6.40
2019-01-14T21:15:24.409Z,6.40
2019-01-14T21:18:07.908Z,6.30
2019-01-14T21:20:41.895Z,6.10
2019-01-14T21:23:18.786Z,6.10
2019-01-14T21:25:47.459Z,6.10
2019-01-14T21:28:20.135Z,6.10
2019-01-14T21:30:53.327Z,6.20
2019-01-14T21:33:24.359Z,6.20
2019-01-14T21:35:54.831Z,6.30
2019-01-14T21:38:27.092Z,6.30
2019-01-14T21:41:06.603Z,6.30
2019-01-14T21:43:39.208Z,6.30
2019-01-14T21:46:12.974Z,6.20
2019-01-14T21:48:47.951Z,6.20
2019-01-14T21:51:21.032Z,6.10
2019-01-14T21:53:55.148Z,6.10
2019-01-14T21:56:27.918Z,6.10
2019-01-14T21:59:02.175Z,6.10
2019-01-14T22:01:40.368Z,6.10
2019-01-14T22:04:12.201Z,6.10
2019-01-14T22:06:45.218Z,6.00
2019-01-14T22:09:18.232Z,6.00
2019-01-14T22:11:52.401Z,6.00
2019-01-14T22:14:31.289Z,6.00
2019-01-14T22:17:06.424Z,5.90
2019-01-14T22:19:45.417Z,5.90
2019-01-14T22:22:19.243Z,5.80
2019-01-14T22:24:53.572Z,5.80
2019-01-14T22:27:29.702Z,5.80
2019-01-14T22:30:04.655Z,5.80
2019-01-14T22:32:39.451Z,5.80
2019-01-14T22:35:10.293Z,5.70
2019-01-14T22:37:47.407Z,5.70
2019-01-14T22:40:18.456Z,5.60
2019-01-14T22:42:51.172Z,5.50
2019-01-14T22:45:25.899Z,5.50
2019-01-14T22:48:04.761Z,5.50
2019-01-14T22:50:35.077Z,5.50
2019-01-14T22:53:05.064Z,5.50
2019-01-14T22:55:35.724Z,5.50
2019-01-14T22:58:07.948Z,5.40
2019-01-14T23:01:14.996Z,5.40
2019-01-14T23:03:47.867Z,4.30
2019-01-14T23:06:22.288Z,5.40
2019-01-14T23:08:52.333Z,5.40
2019-01-14T23:11:24.249Z,5.40
2019-01-14T23:13:59.065Z,5.40
2019-01-14T23:16:35.390Z,5.40
2019-01-14T23:19:20.044Z,5.40
2019-01-14T23:22:01.976Z,5.50
2019-01-14T23:24:40.127Z,5.40
2019-01-14T23:27:10.581Z,5.40
2019-01-14T23:29:42.484Z,5.30
2019-01-14T23:32:12.632Z,5.30
2019-01-14T23:34:50.855Z,4.30
2019-01-14T23:37:23.331Z,5.30
2019-01-14T23:39:53.776Z,5.20
2019-01-14T23:42:33.817Z,5.20
2019-01-14T23:45:13.381Z,5.10
2019-01-14T23:47:51.137Z,5.20
2019-01-14T23:50:29.459Z,5.30
2019-01-14T23:53:03.901Z,5.30
2019-01-14T23:55:36.646Z,5.20
2019-01-14T23:58:07.559Z,5.20
